sensor_id;sensor_type;location;lat;lon;timestamp;pressure;altitude;pressure_sealevel;temperature;humidity
37206;BME280;23099;42.636;23.198;2023-04-20T00:02:07;91663.34;;;8.42;88.90
37206;BME280;23099;42.636;23.198;2023-04-20T00:04:35;91651.47;;;8.36;88.58
37206;BME280;23099;42.636;23.198;2023-04-20T00:07:02;91652.63;;;8.39;87.79
37206;BME280;23099;42.636;23.198;2023-04-20T00:09:28;91649.19;;;8.38;87.07
37206;BME280;23099;42.636;23.198;2023-04-20T00:11:56;91645.41;;;8.39;88.36
37206;BME280;23099;42.636;23.198;2023-04-20T00:14:22;91647.53;;;8.30;89.13
37206;BME280;23099;42.636;23.198;2023-04-20T00:16:49;91644.44;;;8.28;89.86
37206;BME280;23099;42.636;23.198;2023-04-20T00:19:16;91640.66;;;8.29;89.88
37206;BME280;23099;42.636;23.198;2023-04-20T00:21:44;91632.78;;;8.33;91.16
37206;BME280;23099;42.636;23.198;2023-04-20T00:24:11;91637.38;;;8.36;90.05
37206;BME280;23099;42.636;23.198;2023-04-20T00:26:37;91637.75;;;8.34;89.69
37206;BME280;23099;42.636;23.198;2023-04-20T00:29:04;91634.31;;;8.34;89.24
37206;BME280;23099;42.636;23.198;2023-04-20T00:31:31;91630.53;;;8.35;88.88
37206;BME280;23099;42.636;23.198;2023-04-20T00:33:58;91633.44;;;8.30;89.15
37206;BME280;23099;42.636;23.198;2023-04-20T00:36:24;91626.34;;;8.14;89.95
37206;BME280;23099;42.636;23.198;2023-04-20T00:38:53;91628.91;;;8.11;89.55
37206;BME280;23099;42.636;23.198;2023-04-20T00:41:20;91624.44;;;8.15;90.90
37206;BME280;23099;42.636;23.198;2023-04-20T00:43:50;91620.59;;;8.12;91.22
37206;BME280;23099;42.636;23.198;2023-04-20T00:46:17;91619.13;;;7.96;88.99
37206;BME280;23099;42.636;23.198;2023-04-20T00:48:44;91624.53;;;7.99;89.52
37206;BME280;23099;42.636;23.198;2023-04-20T00:51:11;91625.19;;;7.93;89.51
37206;BME280;23099;42.636;23.198;2023-04-20T00:53:39;91621.53;;;8.01;90.29
37206;BME280;23099;42.636;23.198;2023-04-20T00:56:08;91611.59;;;7.98;90.79
37206;BME280;23099;42.636;23.198;2023-04-20T00:58:35;91628.47;;;8.05;91.15
37206;BME280;23099;42.636;23.198;2023-04-20T01:01:01;91627.84;;;7.93;91.26
37206;BME280;23099;42.636;23.198;2023-04-20T01:03:28;91620.47;;;8.05;91.36
37206;BME280;23099;42.636;23.198;2023-04-20T01:05:55;91624.13;;;7.97;88.14
37206;BME280;23099;42.636;23.198;2023-04-20T01:08:24;91621.00;;;7.92;87.42
37206;BME280;23099;42.636;23.198;2023-04-20T01:10:51;91624.34;;;7.89;88.53
37206;BME280;23099;42.636;23.198;2023-04-20T01:13:19;91615.25;;;7.90;88.65
37206;BME280;23099;42.636;23.198;2023-04-20T01:15:46;91621.25;;;7.87;88.50
37206;BME280;23099;42.636;23.198;2023-04-20T01:18:13;91616.19;;;7.78;86.86
37206;BME280;23099;42.636;23.198;2023-04-20T01:20:40;91609.75;;;7.79;87.57
37206;BME280;23099;42.636;23.198;2023-04-20T01:23:08;91614.16;;;7.94;88.50
37206;BME280;23099;42.636;23.198;2023-04-20T01:25:34;91613.53;;;8.01;87.84
37206;BME280;23099;42.636;23.198;2023-04-20T01:28:01;91613.78;;;8.15;89.26
37206;BME280;23099;42.636;23.198;2023-04-20T01:30:29;91604.53;;;8.09;89.98
37206;BME280;23099;42.636;23.198;2023-04-20T01:32:56;91613.50;;;8.20;89.30
37206;BME280;23099;42.636;23.198;2023-04-20T01:35:22;91611.66;;;8.24;89.12
37206;BME280;23099;42.636;23.198;2023-04-20T01:37:49;91617.47;;;8.30;88.28
37206;BME280;23099;42.636;23.198;2023-04-20T01:40:17;91614.19;;;8.36;89.48
37206;BME280;23099;42.636;23.198;2023-04-20T01:42:44;91611.88;;;8.35;90.57
37206;BME280;23099;42.636;23.198;2023-04-20T01:45:10;91608.50;;;8.38;90.01
37206;BME280;23099;42.636;23.198;2023-04-20T01:47:37;91602.81;;;8.39;89.89
37206;BME280;23099;42.636;23.198;2023-04-20T01:50:04;91612.06;;;8.45;89.07
37206;BME280;23099;42.636;23.198;2023-04-20T01:52:31;91613.25;;;8.48;88.18
37206;BME280;23099;42.636;23.198;2023-04-20T01:54:58;91600.97;;;8.43;83.92
37206;BME280;23099;42.636;23.198;2023-04-20T01:57:26;91588.03;;;8.42;84.79
37206;BME280;23099;42.636;23.198;2023-04-20T01:59:53;91592.16;;;8.39;84.62
37206;BME280;23099;42.636;23.198;2023-04-20T02:02:19;91588.78;;;8.42;85.65
37206;BME280;23099;42.636;23.198;2023-04-20T02:04:46;91597.25;;;8.48;85.13
37206;BME280;23099;42.636;23.198;2023-04-20T02:07:12;91600.97;;;8.43;85.19
37206;BME280;23099;42.636;23.198;2023-04-20T02:09:39;91597.56;;;8.43;85.55
37206;BME280;23099;42.636;23.198;2023-04-20T02:12:06;91593.06;;;8.47;85.32
37206;BME280;23099;42.636;23.198;2023-04-20T02:14:34;91593.59;;;8.33;85.13
37206;BME280;23099;42.636;23.198;2023-04-20T02:17:00;91596.25;;;8.33;86.62
37206;BME280;23099;42.636;23.198;2023-04-20T02:19:27;91593.44;;;8.26;85.86
37206;BME280;23099;42.636;23.198;2023-04-20T02:21:54;91595.75;;;8.28;86.69
37206;BME280;23099;42.636;23.198;2023-04-20T02:24:20;91598.41;;;8.28;86.79
37206;BME280;23099;42.636;23.198;2023-04-20T02:26:47;91592.25;;;8.24;86.31
37206;BME280;23099;42.636;23.198;2023-04-20T02:29:14;91585.63;;;8.14;86.10
37206;BME280;23099;42.636;23.198;2023-04-20T02:31:43;91587.53;;;8.13;86.59
37206;BME280;23099;42.636;23.198;2023-04-20T02:34:09;91579.88;;;8.12;86.67
37206;BME280;23099;42.636;23.198;2023-04-20T02:36:37;91586.75;;;8.13;87.87
37206;BME280;23099;42.636;23.198;2023-04-20T02:39:04;91588.00;;;8.19;88.85
37206;BME280;23099;42.636;23.198;2023-04-20T02:41:31;91576.19;;;8.16;89.17
37206;BME280;23099;42.636;23.198;2023-04-20T02:43:58;91590.78;;;8.26;88.08
37206;BME280;23099;42.636;23.198;2023-04-20T02:46:24;91590.78;;;8.26;88.28
37206;BME280;23099;42.636;23.198;2023-04-20T02:48:52;91593.03;;;8.24;87.82
37206;BME280;23099;42.636;23.198;2023-04-20T02:51:20;91594.63;;;8.29;87.98
37206;BME280;23099;42.636;23.198;2023-04-20T02:53:47;91595.50;;;8.33;88.97
37206;BME280;23099;42.636;23.198;2023-04-20T02:56:14;91598.69;;;8.23;88.55
37206;BME280;23099;42.636;23.198;2023-04-20T02:58:40;91597.28;;;8.29;89.25
37206;BME280;23099;42.636;23.198;2023-04-20T03:01:07;91597.41;;;8.13;88.36
37206;BME280;23099;42.636;23.198;2023-04-20T03:03:34;91594.47;;;8.18;88.64
37206;BME280;23099;42.636;23.198;2023-04-20T03:06:02;91595.50;;;8.13;87.51
37206;BME280;23099;42.636;23.198;2023-04-20T03:08:29;91597.28;;;8.06;89.24
37206;BME280;23099;42.636;23.198;2023-04-20T03:10:56;91596.16;;;8.07;87.54
37206;BME280;23099;42.636;23.198;2023-04-20T03:13:22;91599.19;;;8.05;86.88
37206;BME280;23099;42.636;23.198;2023-04-20T03:15:49;91590.84;;;8.07;87.88
37206;BME280;23099;42.636;23.198;2023-04-20T03:18:15;91589.69;;;8.08;87.83
37206;BME280;23099;42.636;23.198;2023-04-20T03:20:42;91594.31;;;8.11;88.41
37206;BME280;23099;42.636;23.198;2023-04-20T03:23:10;91591.25;;;8.09;87.69
37206;BME280;23099;42.636;23.198;2023-04-20T03:25:37;91600.34;;;8.08;87.75
37206;BME280;23099;42.636;23.198;2023-04-20T03:28:03;91600.41;;;8.11;88.45
37206;BME280;23099;42.636;23.198;2023-04-20T03:30:30;91600.13;;;8.16;89.35
37206;BME280;23099;42.636;23.198;2023-04-20T03:32:57;91605.66;;;8.08;88.48
37206;BME280;23099;42.636;23.198;2023-04-20T03:35:24;91607.16;;;8.05;88.68
37206;BME280;23099;42.636;23.198;2023-04-20T03:37:51;91600.59;;;7.99;88.57
37206;BME280;23099;42.636;23.198;2023-04-20T03:40:19;91603.31;;;8.03;88.98
37206;BME280;23099;42.636;23.198;2023-04-20T03:42:46;91600.66;;;8.03;89.37
37206;BME280;23099;42.636;23.198;2023-04-20T03:45:12;91599.13;;;8.02;89.43
37206;BME280;23099;42.636;23.198;2023-04-20T03:47:39;91609.34;;;8.00;89.83
37206;BME280;23099;42.636;23.198;2023-04-20T03:50:06;91608.63;;;8.03;90.21
37206;BME280;23099;42.636;23.198;2023-04-20T03:52:33;91608.28;;;8.04;90.21
37206;BME280;23099;42.636;23.198;2023-04-20T03:55:00;91609.69;;;7.98;89.44
37206;BME280;23099;42.636;23.198;2023-04-20T03:57:28;91613.25;;;8.06;89.62
37206;BME280;23099;42.636;23.198;2023-04-20T03:59:55;91614.50;;;8.12;89.59
37206;BME280;23099;42.636;23.198;2023-04-20T04:02:22;91616.44;;;8.15;88.83
37206;BME280;23099;42.636;23.198;2023-04-20T04:04:49;91615.41;;;8.20;89.14
37206;BME280;23099;42.636;23.198;2023-04-20T04:07:15;91616.94;;;8.21;89.93
37206;BME280;23099;42.636;23.198;2023-04-20T04:09:42;91615.63;;;8.11;89.45
37206;BME280;23099;42.636;23.198;2023-04-20T04:12:09;91616.03;;;8.13;89.39
37206;BME280;23099;42.636;23.198;2023-04-20T04:14:37;91614.97;;;8.18;89.84
37206;BME280;23099;42.636;23.198;2023-04-20T04:17:03;91617.22;;;8.15;88.44
37206;BME280;23099;42.636;23.198;2023-04-20T04:19:32;91620.22;;;8.14;88.31
37206;BME280;23099;42.636;23.198;2023-04-20T04:21:58;91620.94;;;8.11;89.16
37206;BME280;23099;42.636;23.198;2023-04-20T04:24:25;91614.06;;;8.10;88.22
37206;BME280;23099;42.636;23.198;2023-04-20T04:26:52;91618.59;;;8.06;89.44
37206;BME280;23099;42.636;23.198;2023-04-20T04:29:20;91617.59;;;7.95;89.88
37206;BME280;23099;42.636;23.198;2023-04-20T04:31:49;91616.47;;;7.96;89.69
37206;BME280;23099;42.636;23.198;2023-04-20T04:34:15;91622.94;;;7.95;89.70
37206;BME280;23099;42.636;23.198;2023-04-20T04:36:43;91617.97;;;7.93;90.00
37206;BME280;23099;42.636;23.198;2023-04-20T04:39:10;91621.88;;;7.99;90.46
37206;BME280;23099;42.636;23.198;2023-04-20T04:41:37;91621.25;;;8.06;90.95
37206;BME280;23099;42.636;23.198;2023-04-20T04:44:04;91629.84;;;8.19;91.05
37206;BME280;23099;42.636;23.198;2023-04-20T04:46:31;91629.53;;;8.24;90.04
37206;BME280;23099;42.636;23.198;2023-04-20T04:48:59;91635.63;;;8.24;89.16
37206;BME280;23099;42.636;23.198;2023-04-20T04:51:27;91631.66;;;8.14;88.78
37206;BME280;23099;42.636;23.198;2023-04-20T04:53:53;91636.44;;;8.05;89.45
37206;BME280;23099;42.636;23.198;2023-04-20T04:56:20;91632.88;;;7.98;85.56
37206;BME280;23099;42.636;23.198;2023-04-20T04:58:47;91643.88;;;7.96;87.99
37206;BME280;23099;42.636;23.198;2023-04-20T05:01:14;91651.06;;;7.96;89.40
37206;BME280;23099;42.636;23.198;2023-04-20T05:03:41;91649.69;;;8.02;88.36
37206;BME280;23099;42.636;23.198;2023-04-20T05:06:09;91645.06;;;7.99;86.24
37206;BME280;23099;42.636;23.198;2023-04-20T05:08:35;91650.56;;;8.09;86.04
37206;BME280;23099;42.636;23.198;2023-04-20T05:11:02;91650.72;;;8.16;86.35
37206;BME280;23099;42.636;23.198;2023-04-20T05:13:29;91647.13;;;8.09;85.19
37206;BME280;23099;42.636;23.198;2023-04-20T05:15:56;91647.97;;;8.13;85.89
37206;BME280;23099;42.636;23.198;2023-04-20T05:18:22;91646.34;;;8.08;84.27
37206;BME280;23099;42.636;23.198;2023-04-20T05:20:49;91650.56;;;8.09;85.47
37206;BME280;23099;42.636;23.198;2023-04-20T05:23:17;91637.41;;;7.97;84.79
37206;BME280;23099;42.636;23.198;2023-04-20T05:25:44;91640.50;;;7.99;85.96
37206;BME280;23099;42.636;23.198;2023-04-20T05:28:11;91654.94;;;7.98;83.90
37206;BME280;23099;42.636;23.198;2023-04-20T05:30:38;91651.16;;;7.99;84.61
37206;BME280;23099;42.636;23.198;2023-04-20T05:33:05;91655.97;;;8.13;86.76
37206;BME280;23099;42.636;23.198;2023-04-20T05:35:31;91657.56;;;8.18;84.92
37206;BME280;23099;42.636;23.198;2023-04-20T05:37:58;91657.25;;;8.23;85.47
37206;BME280;23099;42.636;23.198;2023-04-20T05:40:28;91660.41;;;8.28;86.23
37206;BME280;23099;42.636;23.198;2023-04-20T05:42:55;91659.72;;;8.31;84.46
37206;BME280;23099;42.636;23.198;2023-04-20T05:45:21;91660.19;;;8.37;83.37
37206;BME280;23099;42.636;23.198;2023-04-20T05:47:52;91656.19;;;8.46;83.08
37206;BME280;23099;42.636;23.198;2023-04-20T05:50:19;91661.22;;;8.51;84.30
37206;BME280;23099;42.636;23.198;2023-04-20T05:52:47;91650.00;;;8.62;86.72
37206;BME280;23099;42.636;23.198;2023-04-20T05:55:13;91656.78;;;8.59;87.63
37206;BME280;23099;42.636;23.198;2023-04-20T05:57:41;91660.16;;;8.56;90.11
37206;BME280;23099;42.636;23.198;2023-04-20T06:00:09;91653.22;;;8.51;88.59
37206;BME280;23099;42.636;23.198;2023-04-20T06:02:36;91656.13;;;8.43;89.73
37206;BME280;23099;42.636;23.198;2023-04-20T06:05:03;91660.97;;;8.37;92.73
37206;BME280;23099;42.636;23.198;2023-04-20T06:07:30;91662.81;;;8.33;91.96
37206;BME280;23099;42.636;23.198;2023-04-20T06:09:57;91657.53;;;8.37;91.34
37206;BME280;23099;42.636;23.198;2023-04-20T06:12:25;91656.50;;;8.41;91.75
37206;BME280;23099;42.636;23.198;2023-04-20T06:14:53;91657.69;;;8.44;92.62
37206;BME280;23099;42.636;23.198;2023-04-20T06:17:19;91659.09;;;8.38;91.65
37206;BME280;23099;42.636;23.198;2023-04-20T06:19:46;91658.38;;;8.41;91.45
37206;BME280;23099;42.636;23.198;2023-04-20T06:22:13;91659.22;;;8.45;92.21
37206;BME280;23099;42.636;23.198;2023-04-20T06:24:40;91653.97;;;8.48;92.63
37206;BME280;23099;42.636;23.198;2023-04-20T06:27:07;91652.97;;;8.37;96.73
37206;BME280;23099;42.636;23.198;2023-04-20T06:29:34;91657.59;;;8.40;93.02
37206;BME280;23099;42.636;23.198;2023-04-20T06:32:02;91666.78;;;8.43;93.67
37206;BME280;23099;42.636;23.198;2023-04-20T06:34:28;91654.94;;;8.40;93.32
37206;BME280;23099;42.636;23.198;2023-04-20T06:36:55;91665.84;;;8.55;94.07
37206;BME280;23099;42.636;23.198;2023-04-20T06:39:22;91659.88;;;8.61;95.47
37206;BME280;23099;42.636;23.198;2023-04-20T06:41:49;91666.78;;;8.66;95.21
37206;BME280;23099;42.636;23.198;2023-04-20T06:44:15;91669.06;;;8.64;94.48
37206;BME280;23099;42.636;23.198;2023-04-20T06:46:42;91665.25;;;8.65;94.32
37206;BME280;23099;42.636;23.198;2023-04-20T06:49:11;91670.59;;;8.65;92.95
37206;BME280;23099;42.636;23.198;2023-04-20T06:51:38;91680.22;;;8.73;92.60
37206;BME280;23099;42.636;23.198;2023-04-20T06:54:04;91678.81;;;8.79;92.96
37206;BME280;23099;42.636;23.198;2023-04-20T06:56:31;91682.69;;;8.85;92.28
37206;BME280;23099;42.636;23.198;2023-04-20T06:58:58;91681.50;;;8.82;94.23
37206;BME280;23099;42.636;23.198;2023-04-20T07:01:24;91682.13;;;8.72;96.15
37206;BME280;23099;42.636;23.198;2023-04-20T07:03:51;91680.00;;;8.59;99.73
37206;BME280;23099;42.636;23.198;2023-04-20T07:06:19;91686.97;;;8.44;98.89
37206;BME280;23099;42.636;23.198;2023-04-20T07:08:46;91686.44;;;8.35;98.18
37206;BME280;23099;42.636;23.198;2023-04-20T07:11:13;91693.66;;;8.34;99.09
37206;BME280;23099;42.636;23.198;2023-04-20T07:13:39;91693.34;;;8.39;99.69
37206;BME280;23099;42.636;23.198;2023-04-20T07:16:06;91694.53;;;8.42;99.38
37206;BME280;23099;42.636;23.198;2023-04-20T07:18:34;91693.78;;;8.41;99.69
37206;BME280;23099;42.636;23.198;2023-04-20T07:21:01;91695.03;;;8.47;99.58
37206;BME280;23099;42.636;23.198;2023-04-20T07:23:29;91696.16;;;8.46;99.90
37206;BME280;23099;42.636;23.198;2023-04-20T07:25:55;91695.84;;;8.51;100.00
37206;BME280;23099;42.636;23.198;2023-04-20T07:28:22;91697.63;;;8.44;100.00
37206;BME280;23099;42.636;23.198;2023-04-20T07:30:49;91696.56;;;8.48;100.00
37206;BME280;23099;42.636;23.198;2023-04-20T07:33:15;91696.69;;;8.56;100.00
37206;BME280;23099;42.636;23.198;2023-04-20T07:35:42;91689.53;;;8.60;100.00
37206;BME280;23099;42.636;23.198;2023-04-20T07:38:09;91698.47;;;8.71;100.00
37206;BME280;23099;42.636;23.198;2023-04-20T07:40:37;91693.97;;;8.75;100.00
37206;BME280;23099;42.636;23.198;2023-04-20T07:43:04;91693.69;;;8.80;100.00
37206;BME280;23099;42.636;23.198;2023-04-20T07:45:30;91691.72;;;8.77;100.00
37206;BME280;23099;42.636;23.198;2023-04-20T07:47:57;91698.88;;;8.73;99.84
37206;BME280;23099;42.636;23.198;2023-04-20T07:50:26;91693.69;;;8.80;100.00
37206;BME280;23099;42.636;23.198;2023-04-20T07:52:52;91697.28;;;8.91;100.00
37206;BME280;23099;42.636;23.198;2023-04-20T07:55:19;91698.84;;;8.96;99.58
37206;BME280;23099;42.636;23.198;2023-04-20T07:57:47;91692.47;;;9.00;99.96
37206;BME280;23099;42.636;23.198;2023-04-20T08:00:15;91701.91;;;8.94;97.23
37206;BME280;23099;42.636;23.198;2023-04-20T08:02:42;91693.53;;;8.96;95.47
37206;BME280;23099;42.636;23.198;2023-04-20T08:05:09;91698.81;;;8.92;97.71
37206;BME280;23099;42.636;23.198;2023-04-20T08:07:36;91702.66;;;8.95;95.10
37206;BME280;23099;42.636;23.198;2023-04-20T08:10:03;91698.16;;;8.99;95.27
37206;BME280;23099;42.636;23.198;2023-04-20T08:12:30;91686.56;;;8.88;95.62
37206;BME280;23099;42.636;23.198;2023-04-20T08:14:58;91704.97;;;8.96;94.36
37206;BME280;23099;42.636;23.198;2023-04-20T08:17:28;91698.41;;;8.90;95.48
37206;BME280;23099;42.636;23.198;2023-04-20T08:19:55;91707.03;;;8.83;96.11
37206;BME280;23099;42.636;23.198;2023-04-20T08:22:21;91708.16;;;8.82;92.77
37206;BME280;23099;42.636;23.198;2023-04-20T08:24:48;91703.56;;;8.79;95.85
37206;BME280;23099;42.636;23.198;2023-04-20T08:27:15;91704.63;;;8.75;91.56
37206;BME280;23099;42.636;23.198;2023-04-20T08:29:42;91702.03;;;8.78;94.26
37206;BME280;23099;42.636;23.198;2023-04-20T08:32:10;91694.13;;;8.85;92.99
37206;BME280;23099;42.636;23.198;2023-04-20T08:34:37;91703.78;;;8.94;92.78
37206;BME280;23099;42.636;23.198;2023-04-20T08:37:04;91704.31;;;9.03;93.53
37206;BME280;23099;42.636;23.198;2023-04-20T08:39:30;91705.78;;;9.00;91.26
37206;BME280;23099;42.636;23.198;2023-04-20T08:41:57;91709.38;;;9.11;91.45
37206;BME280;23099;42.636;23.198;2023-04-20T08:44:24;91704.81;;;9.12;92.25
37206;BME280;23099;42.636;23.198;2023-04-20T08:46:51;91701.03;;;9.13;93.00
37206;BME280;23099;42.636;23.198;2023-04-20T08:49:19;91696.06;;;9.11;93.80
37206;BME280;23099;42.636;23.198;2023-04-20T08:51:47;91696.03;;;9.08;91.83
37206;BME280;23099;42.636;23.198;2023-04-20T08:54:14;91696.19;;;8.96;92.51
37206;BME280;23099;42.636;23.198;2023-04-20T08:56:44;91699.97;;;8.95;92.93
37206;BME280;23099;42.636;23.198;2023-04-20T08:59:11;91699.69;;;9.00;92.35
37206;BME280;23099;42.636;23.198;2023-04-20T09:01:39;91711.69;;;9.13;93.49
37206;BME280;23099;42.636;23.198;2023-04-20T09:04:16;91713.38;;;9.21;92.68
37206;BME280;23099;42.636;23.198;2023-04-20T09:06:45;91709.19;;;9.23;94.22
37206;BME280;23099;42.636;23.198;2023-04-20T09:09:14;91702.44;;;9.30;94.91
37206;BME280;23099;42.636;23.198;2023-04-20T09:11:41;91693.44;;;9.15;92.07
37206;BME280;23099;42.636;23.198;2023-04-20T09:14:10;91709.91;;;9.20;90.67
37206;BME280;23099;42.636;23.198;2023-04-20T09:16:37;91710.22;;;9.15;91.99
37206;BME280;23099;42.636;23.198;2023-04-20T09:19:04;91701.19;;;9.23;92.64
37206;BME280;23099;42.636;23.198;2023-04-20T09:21:31;91703.50;;;9.25;90.81
37206;BME280;23099;42.636;23.198;2023-04-20T09:24:00;91699.00;;;9.29;89.10
37206;BME280;23099;42.636;23.198;2023-04-20T09:26:30;91706.38;;;9.39;88.18
37206;BME280;23099;42.636;23.198;2023-04-20T09:28:57;91693.44;;;9.41;90.54
37206;BME280;23099;42.636;23.198;2023-04-20T09:31:24;91691.97;;;9.44;88.04
37206;BME280;23099;42.636;23.198;2023-04-20T09:33:58;91693.63;;;9.52;89.83
37206;BME280;23099;42.636;23.198;2023-04-20T09:36:34;91691.44;;;9.61;90.31
37206;BME280;23099;42.636;23.198;2023-04-20T09:39:07;91683.50;;;9.68;89.50
37206;BME280;23099;42.636;23.198;2023-04-20T09:41:34;91686.06;;;9.57;87.83
37206;BME280;23099;42.636;23.198;2023-04-20T09:44:02;91691.69;;;9.79;84.26
37206;BME280;23099;42.636;23.198;2023-04-20T09:46:30;91671.16;;;9.86;87.54
37206;BME280;23099;42.636;23.198;2023-04-20T09:48:58;91684.78;;;10.11;86.78
37206;BME280;23099;42.636;23.198;2023-04-20T09:51:26;91687.94;;;10.17;83.70
37206;BME280;23099;42.636;23.198;2023-04-20T09:53:54;91689.19;;;10.23;82.92
37206;BME280;23099;42.636;23.198;2023-04-20T09:56:23;91686.22;;;10.32;81.53
37206;BME280;23099;42.636;23.198;2023-04-20T09:58:50;91681.72;;;10.43;83.95
37206;BME280;23099;42.636;23.198;2023-04-20T10:01:18;91684.50;;;10.50;79.61
37206;BME280;23099;42.636;23.198;2023-04-20T10:03:45;91678.88;;;10.62;81.61
37206;BME280;23099;42.636;23.198;2023-04-20T10:06:19;91679.19;;;10.57;80.43
37206;BME280;23099;42.636;23.198;2023-04-20T10:08:46;91676.34;;;10.76;80.71
37206;BME280;23099;42.636;23.198;2023-04-20T10:11:28;91671.44;;;10.85;78.26
37206;BME280;23099;42.636;23.198;2023-04-20T10:13:55;91681.44;;;10.92;75.43
37206;BME280;23099;42.636;23.198;2023-04-20T10:16:22;91670.50;;;11.08;77.71
37206;BME280;23099;42.636;23.198;2023-04-20T10:18:58;91664.91;;;11.30;80.45
37206;BME280;23099;42.636;23.198;2023-04-20T10:21:26;91660.38;;;11.42;80.55
37206;BME280;23099;42.636;23.198;2023-04-20T10:23:53;91666.94;;;11.48;78.15
37206;BME280;23099;42.636;23.198;2023-04-20T10:26:21;91666.94;;;11.48;78.74
37206;BME280;23099;42.636;23.198;2023-04-20T10:28:49;91671.13;;;11.45;79.03
37206;BME280;23099;42.636;23.198;2023-04-20T10:31:16;91665.72;;;11.42;78.85
37206;BME280;23099;42.636;23.198;2023-04-20T10:33:51;91661.91;;;11.43;76.58
37206;BME280;23099;42.636;23.198;2023-04-20T10:36:23;91661.59;;;11.55;78.24
37206;BME280;23099;42.636;23.198;2023-04-20T10:38:50;91657.41;;;11.54;73.70
37206;BME280;23099;42.636;23.198;2023-04-20T10:41:17;91673.84;;;11.56;75.80
37206;BME280;23099;42.636;23.198;2023-04-20T10:43:45;91670.41;;;11.52;76.52
37206;BME280;23099;42.636;23.198;2023-04-20T10:46:14;91657.78;;;11.56;77.00
37206;BME280;23099;42.636;23.198;2023-04-20T10:48:52;91676.94;;;11.58;76.33
37206;BME280;23099;42.636;23.198;2023-04-20T10:51:19;91667.81;;;11.66;78.67
37206;BME280;23099;42.636;23.198;2023-04-20T10:53:46;91669.34;;;11.70;78.32
37206;BME280;23099;42.636;23.198;2023-04-20T10:56:22;91664.44;;;11.76;76.61
37206;BME280;23099;42.636;23.198;2023-04-20T10:58:49;91677.06;;;11.76;76.60
37206;BME280;23099;42.636;23.198;2023-04-20T11:01:17;91670.88;;;11.72;74.90
37206;BME280;23099;42.636;23.198;2023-04-20T11:03:48;91666.28;;;11.72;77.84
37206;BME280;23099;42.636;23.198;2023-04-20T11:06:15;91665.81;;;11.56;77.99
37206;BME280;23099;42.636;23.198;2023-04-20T11:08:42;91662.34;;;11.48;78.04
37206;BME280;23099;42.636;23.198;2023-04-20T11:11:19;91658.19;;;11.58;79.28
37206;BME280;23099;42.636;23.198;2023-04-20T11:13:48;91663.63;;;11.72;79.09
37206;BME280;23099;42.636;23.198;2023-04-20T11:16:17;91666.75;;;11.85;75.03
37206;BME280;23099;42.636;23.198;2023-04-20T11:18:48;91652.78;;;12.23;77.40
37206;BME280;23099;42.636;23.198;2023-04-20T11:21:17;91656.72;;;12.68;71.07
37206;BME280;23099;42.636;23.198;2023-04-20T11:23:44;91654.41;;;13.13;71.99
37206;BME280;23099;42.636;23.198;2023-04-20T11:26:10;91654.75;;;13.75;72.10
37206;BME280;23099;42.636;23.198;2023-04-20T11:28:37;91655.38;;;14.19;67.78
37206;BME280;23099;42.636;23.198;2023-04-20T11:31:04;91655.69;;;14.31;66.57
37206;BME280;23099;42.636;23.198;2023-04-20T11:33:32;91646.03;;;14.48;65.31
37206;BME280;23099;42.636;23.198;2023-04-20T11:35:59;91643.09;;;14.91;62.37
37206;BME280;23099;42.636;23.198;2023-04-20T11:38:30;91630.47;;;14.84;61.31
37206;BME280;23099;42.636;23.198;2023-04-20T11:40:57;91635.13;;;14.73;61.27
37206;BME280;23099;42.636;23.198;2023-04-20T11:43:29;91628.00;;;15.48;68.79
37206;BME280;23099;42.636;23.198;2023-04-20T11:45:55;91624.50;;;15.51;58.91
37206;BME280;23099;42.636;23.198;2023-04-20T11:48:22;91615.94;;;15.67;59.83
37206;BME280;23099;42.636;23.198;2023-04-20T11:50:51;91622.97;;;15.91;55.80
37206;BME280;23099;42.636;23.198;2023-04-20T11:53:18;91612.50;;;16.01;60.07
37206;BME280;23099;42.636;23.198;2023-04-20T11:55:45;91616.13;;;16.17;56.05
37206;BME280;23099;42.636;23.198;2023-04-20T11:58:13;91614.50;;;15.55;54.93
37206;BME280;23099;42.636;23.198;2023-04-20T12:00:40;91615.13;;;15.29;56.14
37206;BME280;23099;42.636;23.198;2023-04-20T12:03:06;91613.75;;;15.07;57.74
37206;BME280;23099;42.636;23.198;2023-04-20T12:05:33;91620.06;;;14.86;61.13
37206;BME280;23099;42.636;23.198;2023-04-20T12:08:01;91619.44;;;14.64;58.09
37206;BME280;23099;42.636;23.198;2023-04-20T12:10:28;91624.19;;;14.39;57.80
37206;BME280;23099;42.636;23.198;2023-04-20T12:12:54;91622.00;;;14.12;59.67
37206;BME280;23099;42.636;23.198;2023-04-20T12:15:21;91619.78;;;13.93;59.07
37206;BME280;23099;42.636;23.198;2023-04-20T12:17:49;91616.38;;;13.82;60.42
37206;BME280;23099;42.636;23.198;2023-04-20T12:20:15;91615.66;;;13.64;62.13
37206;BME280;23099;42.636;23.198;2023-04-20T12:22:42;91614.19;;;13.34;62.10
37206;BME280;23099;42.636;23.198;2023-04-20T12:25:10;91616.88;;;13.34;63.92
37206;BME280;23099;42.636;23.198;2023-04-20T12:27:37;91616.09;;;13.37;66.89
37206;BME280;23099;42.636;23.198;2023-04-20T12:30:04;91614.59;;;13.26;62.93
37206;BME280;23099;42.636;23.198;2023-04-20T12:32:33;91613.44;;;13.23;64.27
37206;BME280;23099;42.636;23.198;2023-04-20T12:35:00;91611.50;;;13.09;67.63
37206;BME280;23099;42.636;23.198;2023-04-20T12:37:26;91608.44;;;12.97;67.32
37206;BME280;23099;42.636;23.198;2023-04-20T12:39:53;91604.59;;;12.91;67.08
37206;BME280;23099;42.636;23.198;2023-04-20T12:42:21;91603.06;;;12.90;66.85
37206;BME280;23099;42.636;23.198;2023-04-20T12:44:48;91612.25;;;12.99;67.69
37206;BME280;23099;42.636;23.198;2023-04-20T12:47:17;91604.63;;;12.94;65.70
37206;BME280;23099;42.636;23.198;2023-04-20T12:49:44;91601.94;;;12.94;66.90
37206;BME280;23099;42.636;23.198;2023-04-20T12:52:11;91595.78;;;13.08;68.40
37206;BME280;23099;42.636;23.198;2023-04-20T12:54:37;91601.94;;;13.16;66.95
37206;BME280;23099;42.636;23.198;2023-04-20T12:57:04;91594.66;;;13.27;67.98
37206;BME280;23099;42.636;23.198;2023-04-20T12:59:33;91598.84;;;13.31;67.75